Bryan, Texas
Current Conditions -  °F | °C
As of 10:55 AM on Monday 22 Dec 2014 (Local Time) from KCFD Reporting Station
Clear Clear  
Wind Chill: 19°   Ceiling: Unl
Heat Index: 19°   Visibility: 10mi
Dew Point: 13°   Wind: 15mph
Humidity: 72%   Direction: 210°SSW
Pressure: 29.71"   Gusts: 21mph
Location:  30.67°N, 96.37°W
Report Text: KCFD 221655Z AUTO 21013G18KT 10SM CLR 19/13 A2971 RMK AO2 T01850133
Loading
Personal Weather Stations






























Interactive Weather Map New forecast layout! Learn more

10-Day Weather Forecast

Advertisements
Track Severe Weather on mobile